Time;durP1;ratioP1;P1;durP2;ratioP2;P2;SDS_P1;SDS_P2;PMS_P1;PMS_P2;Temp;Humidity;BMP_temperature;BMP_pressure;BME280_temperature;BME280_humidity;BME280_pressure;Samples;Min_cycle;Max_cycle;Signal;HPM_P1;HPM_P2
2021/09/30 00:01:38;;;;;;;2.58;1.00;;;11.70;60.90;;;;;;4864360;29;20588;-80
2021/09/30 00:04:04;;;;;;;2.97;1.23;;;11.60;60.80;;;;;;4855635;29;20041;-81
2021/09/30 00:06:31;;;;;;;2.97;1.08;;;11.70;61.00;;;;;;4846696;29;20097;-80
2021/09/30 00:08:57;;;;;;;1.98;1.10;;;11.60;60.80;;;;;;4841834;29;20481;-80
2021/09/30 00:11:27;;;;;;;5.00;1.70;;;11.70;61.10;;;;;;4845468;29;20034;-80
2021/09/30 00:13:58;;;;;;;3.45;1.67;;;11.70;61.10;;;;;;4849337;29;20072;-81
2021/09/30 00:33:02;;;;;;;6.43;3.25;;;11.80;61.20;;;;;;4853914;29;20135;-82
2021/09/30 00:46:19;;;;;;;3.78;2.05;;;11.90;61.30;;;;;;4863940;29;20066;-80
2021/09/30 00:49:00;;;;;;;3.20;1.40;;;11.90;61.20;;;;;;4850620;29;20038;-79
2021/09/30 00:51:42;;;;;;;4.25;1.30;;;11.90;61.20;;;;;;4829197;29;20034;-80
2021/09/30 01:45:45;;;;;;;2.80;1.10;;;12.00;61.30;;;;;;4857117;29;20078;-82
2021/09/30 02:25:44;;;;;;;4.22;1.20;;;12.00;61.60;;;;;;4859442;29;20039;-82
2021/09/30 02:58:55;;;;;;;1.23;0.55;;;12.10;61.90;;;;;;4858754;29;20044;-81
2021/09/30 03:01:24;;;;;;;4.47;1.17;;;12.10;61.90;;;;;;4858955;29;20037;-80
2021/09/30 03:03:57;;;;;;;3.45;1.00;;;12.00;61.80;;;;;;4858713;29;20034;-81
2021/09/30 03:06:25;;;;;;;5.30;1.25;;;12.10;61.90;;;;;;4842918;29;20033;-84
2021/09/30 03:08:54;;;;;;;2.97;1.00;;;12.10;62.00;;;;;;4859839;29;20034;-82
2021/09/30 03:11:21;;;;;;;3.65;1.35;;;12.10;62.00;;;;;;4858406;29;20443;-84
2021/09/30 03:13:50;;;;;;;3.13;0.82;;;12.10;62.00;;;;;;4858592;29;20371;-84
2021/09/30 03:16:29;;;;;;;4.10;0.80;;;12.10;62.00;;;;;;4858182;29;20037;-83
2021/09/30 03:19:15;;;;;;;;;;;12.10;62.00;;;;;;4859300;29;20030;-83
2021/09/30 03:24:27;;;;;;;2.80;1.15;;;12.10;61.90;;;;;;4858575;29;20061;-82
2021/09/30 03:26:54;;;;;;;2.92;0.77;;;12.10;61.90;;;;;;4858224;29;20041;-83
2021/09/30 03:29:21;;;;;;;4.85;0.90;;;12.10;62.00;;;;;;4858583;29;20029;-82
2021/09/30 03:31:51;;;;;;;4.55;1.35;;;12.10;62.00;;;;;;4858045;29;20064;-86
2021/09/30 03:34:35;;;;;;;2.20;0.85;;;12.20;62.20;;;;;;4859630;29;20494;-85
2021/09/30 03:37:03;;;;;;;5.18;1.10;;;12.10;62.00;;;;;;4858333;29;20071;-83
2021/09/30 03:39:30;;;;;;;3.72;1.00;;;12.20;62.30;;;;;;4858406;29;20034;-88
2021/09/30 03:41:58;;;;;;;6.30;1.00;;;12.20;62.30;;;;;;4857751;29;20041;-80
2021/09/30 03:44:31;;;;;;;6.03;1.30;;;12.20;62.30;;;;;;4857927;29;20044;-81
2021/09/30 03:46:57;;;;;;;3.80;1.00;;;12.20;62.40;;;;;;4857382;29;20554;-79
2021/09/30 03:49:47;;;;;;;2.80;0.90;;;12.20;62.40;;;;;;4856902;29;20036;-84
2021/09/30 03:52:28;;;;;;;2.60;0.80;;;12.20;62.40;;;;;;4857890;29;20049;-81
2021/09/30 03:59:48;;;;;;;4.40;1.67;;;12.20;62.40;;;;;;4857889;29;20341;-82
2021/09/30 04:02:25;;;;;;;2.83;0.88;;;12.20;62.40;;;;;;4857906;29;20610;-83
2021/09/30 04:04:51;;;;;;;4.38;0.90;;;12.30;62.60;;;;;;4857462;29;20036;-81
2021/09/30 04:07:18;;;;;;;2.47;1.20;;;12.20;62.40;;;;;;4857669;29;20049;-81
2021/09/30 04:09:45;;;;;;;2.78;0.75;;;12.30;62.60;;;;;;4842370;29;20034;-80
2021/09/30 04:12:12;;;;;;;3.95;1.58;;;12.30;62.60;;;;;;4857263;29;20144;-80
2021/09/30 04:14:40;;;;;;;3.25;0.90;;;12.30;62.60;;;;;;4857477;29;20400;-80
2021/09/30 04:17:06;;;;;;;3.45;1.30;;;12.30;62.60;;;;;;4842191;29;20037;-81
2021/09/30 04:19:34;;;;;;;4.82;1.60;;;12.30;62.60;;;;;;4857436;29;20061;-81
2021/09/30 04:22:00;;;;;;;4.75;1.23;;;12.30;62.60;;;;;;4857388;29;20034;-84
2021/09/30 04:24:26;;;;;;;4.25;1.20;;;12.30;62.60;;;;;;4857680;29;20077;-82
2021/09/30 04:26:57;;;;;;;3.13;1.00;;;12.30;62.60;;;;;;4857528;29;20061;-82
2021/09/30 04:29:25;;;;;;;3.42;1.02;;;12.30;62.60;;;;;;4858069;29;20025;-82
2021/09/30 04:31:51;;;;;;;3.05;0.93;;;12.30;62.60;;;;;;4856815;29;20084;-80
2021/09/30 04:34:19;;;;;;;3.28;0.90;;;12.30;62.70;;;;;;4857539;29;20041;-80
2021/09/30 04:36:46;;;;;;;5.65;1.10;;;12.30;62.70;;;;;;4857016;29;20040;-80
2021/09/30 04:39:14;;;;;;;3.88;1.40;;;12.30;62.70;;;;;;4858554;29;20044;-80
2021/09/30 04:41:43;;;;;;;3.97;0.90;;;12.30;62.70;;;;;;4856868;29;20056;-80
2021/09/30 04:44:11;;;;;;;4.55;0.90;;;12.30;62.80;;;;;;4857228;29;20065;-80
2021/09/30 04:46:39;;;;;;;2.90;1.10;;;12.40;63.00;;;;;;4856566;29;20136;-80
2021/09/30 04:49:25;;;;;;;4.85;1.00;;;12.40;63.00;;;;;;4849904;29;20045;-79
2021/09/30 04:51:51;;;;;;;3.58;1.60;;;12.40;63.00;;;;;;4839632;29;20125;-80
2021/09/30 04:54:19;;;;;;;2.05;0.88;;;12.40;63.00;;;;;;4821404;29;20045;-83
2021/09/30 04:56:45;;;;;;;2.05;1.00;;;12.40;63.00;;;;;;4836044;29;20394;-80
2021/09/30 04:59:22;;;;;;;4.57;1.10;;;12.40;63.10;;;;;;4822380;29;20193;-83
2021/09/30 05:02:07;;;;;;;3.08;0.93;;;12.40;63.10;;;;;;4839686;29;20086;-77
2021/09/30 05:04:33;;;;;;;3.70;1.23;;;12.50;63.20;;;;;;4851781;29;20040;-77
2021/09/30 05:06:59;;;;;;;2.58;0.70;;;12.40;63.10;;;;;;4861426;29;20094;-78
2021/09/30 05:09:28;;;;;;;2.03;0.73;;;12.40;63.20;;;;;;4868771;29;20097;-79
2021/09/30 05:12:01;;;;;;;3.28;0.95;;;12.50;63.30;;;;;;4854678;29;20044;-80
2021/09/30 05:14:27;;;;;;;1.83;1.05;;;12.40;63.20;;;;;;4845667;29;20055;-81
2021/09/30 05:16:53;;;;;;;4.38;0.73;;;12.40;63.20;;;;;;4856474;29;20653;-80
2021/09/30 05:19:31;;;;;;;1.50;1.10;;;12.40;63.30;;;;;;4855673;29;20030;-78
2021/09/30 05:21:58;;;;;;;2.65;0.80;;;12.50;63.50;;;;;;4855421;29;20041;-78
2021/09/30 05:24:24;;;;;;;2.55;0.63;;;12.40;63.30;;;;;;4856060;29;20037;-77
2021/09/30 05:26:51;;;;;;;3.33;0.80;;;12.50;63.50;;;;;;4856119;29;20041;-78
2021/09/30 05:29:17;;;;;;;3.15;1.15;;;12.50;63.60;;;;;;4825304;29;20026;-79
2021/09/30 05:31:59;;;;;;;4.45;1.00;;;12.50;63.60;;;;;;4838663;29;20033;-81
2021/09/30 05:34:31;;;;;;;6.47;2.08;;;12.50;63.60;;;;;;4857069;29;20033;-83
2021/09/30 05:36:57;;;;;;;5.20;1.52;;;12.50;63.60;;;;;;4856133;29;20124;-82
2021/09/30 05:39:23;;;;;;;2.75;1.33;;;12.50;63.70;;;;;;4854306;29;20082;-80
2021/09/30 05:41:52;;;;;;;4.65;1.27;;;12.60;63.90;;;;;;4839478;29;20034;-79
2021/09/30 05:44:22;;;;;;;3.80;1.20;;;12.60;63.90;;;;;;4856554;29;20041;-79
2021/09/30 05:46:53;;;;;;;2.13;1.13;;;12.60;63.90;;;;;;4855075;29;20053;-81
2021/09/30 05:49:23;;;;;;;4.85;1.00;;;12.60;64.00;;;;;;4840711;29;20071;-85
2021/09/30 05:52:04;;;;;;;2.30;1.00;;;12.60;64.00;;;;;;4836933;29;20676;-81
2021/09/30 05:54:42;;;;;;;5.13;1.55;;;12.60;64.00;;;;;;4844042;29;20112;-83
2021/09/30 05:57:16;;;;;;;3.78;0.98;;;12.60;64.00;;;;;;4837430;29;20030;-83
2021/09/30 05:59:42;;;;;;;4.07;1.10;;;12.60;64.10;;;;;;4839895;29;20068;-81
2021/09/30 06:10:27;;;;;;;3.22;1.02;;;12.70;64.40;;;;;;4864829;29;20104;-84
2021/09/30 06:13:02;;;;;;;4.65;1.30;;;12.70;64.40;;;;;;4842303;29;20045;-84
2021/09/30 06:15:31;;;;;;;3.13;1.00;;;12.70;64.50;;;;;;4855366;29;20021;-82
2021/09/30 06:18:00;;;;;;;3.72;1.17;;;12.70;64.80;;;;;;4851871;29;20097;-84
2021/09/30 06:20:27;;;;;;;4.72;1.10;;;12.80;65.10;;;;;;4848166;29;20105;-87
2021/09/30 06:22:54;;;;;;;5.68;1.27;;;12.80;65.20;;;;;;4845372;29;20030;-82
2021/09/30 06:25:22;;;;;;;6.25;1.13;;;12.80;65.30;;;;;;4850213;29;20102;-84
2021/09/30 06:27:48;;;;;;;3.83;0.80;;;12.80;65.30;;;;;;4840499;29;20050;-84
2021/09/30 06:30:16;;;;;;;2.22;0.63;;;12.80;65.30;;;;;;4850409;29;20034;-80
2021/09/30 06:32:49;;;;;;;3.47;0.80;;;12.90;65.60;;;;;;4855237;29;20057;-82
2021/09/30 06:35:42;;;;;;;6.10;1.70;;;12.90;65.60;;;;;;4857010;29;20627;-82
2021/09/30 06:38:08;;;;;;;5.88;1.73;;;12.90;65.50;;;;;;4851167;29;20038;-84
2021/09/30 06:40:37;;;;;;;6.72;1.58;;;13.00;65.70;;;;;;4825313;29;20029;-80
2021/09/30 06:43:04;;;;;;;4.32;0.90;;;13.00;65.70;;;;;;4839400;29;20034;-81
2021/09/30 06:45:50;;;;;;;4.50;0.88;;;13.00;65.80;;;;;;4842106;29;20483;-82
2021/09/30 06:48:35;;;;;;;5.35;1.67;;;13.00;65.70;;;;;;4847255;29;20053;-90
2021/09/30 06:51:10;;;;;;;3.75;1.20;;;13.10;65.90;;;;;;4845086;29;20105;-81
2021/09/30 06:53:47;;;;;;;4.20;0.75;;;13.10;65.90;;;;;;4841486;29;20046;-85
2021/09/30 06:56:19;;;;;;;4.32;1.00;;;13.10;65.90;;;;;;4847557;29;20025;-79
2021/09/30 06:59:05;;;;;;;5.03;0.90;;;13.20;66.00;;;;;;4849870;29;20038;-81
2021/09/30 07:01:51;;;;;;;4.10;0.75;;;13.30;66.20;;;;;;4852753;29;20218;-82
2021/09/30 07:04:36;;;;;;;6.90;1.13;;;13.30;66.10;;;;;;4839570;29;20037;-78
2021/09/30 07:07:20;;;;;;;2.42;0.80;;;13.30;66.10;;;;;;4840710;29;20121;-86
2021/09/30 07:09:47;;;;;;;5.70;1.45;;;13.40;66.20;;;;;;4851777;29;20037;-81
2021/09/30 07:12:13;;;;;;;3.45;0.95;;;13.40;66.20;;;;;;4854054;29;20045;-81
2021/09/30 07:14:42;;;;;;;5.05;1.00;;;13.40;66.30;;;;;;4847990;29;20041;-81
2021/09/30 07:17:08;;;;;;;5.25;1.77;;;13.50;66.40;;;;;;4855364;29;20124;-80
2021/09/30 07:19:36;;;;;;;2.33;0.85;;;13.50;66.30;;;;;;4853331;29;20034;-83
2021/09/30 07:22:04;;;;;;;3.30;0.80;;;13.60;66.50;;;;;;4871331;29;20030;-82
2021/09/30 07:24:31;;;;;;;3.70;0.82;;;13.60;66.50;;;;;;4840158;29;20042;-80
2021/09/30 07:26:57;;;;;;;3.05;0.63;;;13.60;66.40;;;;;;4854875;29;20041;-80
2021/09/30 07:29:24;;;;;;;3.33;0.80;;;13.70;66.60;;;;;;4855265;29;20382;-79
2021/09/30 07:31:49;;;;;;;4.68;0.90;;;13.70;66.50;;;;;;4855238;29;20045;-80
2021/09/30 07:34:15;;;;;;;4.18;1.33;;;13.70;66.50;;;;;;4849960;29;20038;-79
2021/09/30 07:36:44;;;;;;;6.55;1.10;;;13.80;66.70;;;;;;4850131;29;20045;-89
2021/09/30 07:39:11;;;;;;;5.80;1.30;;;13.80;66.70;;;;;;4846659;29;20033;-81
2021/09/30 07:41:38;;;;;;;1.88;0.90;;;13.80;66.60;;;;;;4845274;29;20056;-83
2021/09/30 07:44:05;;;;;;;4.38;1.25;;;13.90;66.80;;;;;;4845867;29;20034;-81
2021/09/30 07:46:32;;;;;;;2.13;0.93;;;13.90;66.80;;;;;;4845341;29;20045;-80
2021/09/30 07:49:03;;;;;;;4.90;1.17;;;13.90;66.80;;;;;;4845119;29;20038;-94
2021/09/30 07:51:30;;;;;;;6.43;0.90;;;14.00;67.00;;;;;;4842959;29;20029;-79
2021/09/30 07:53:56;;;;;;;5.25;1.38;;;14.00;66.90;;;;;;4844136;29;20048;-81
2021/09/30 07:56:23;;;;;;;4.43;1.15;;;14.00;67.00;;;;;;4849188;29;20026;-86
2021/09/30 07:58:50;;;;;;;3.40;0.98;;;14.10;67.10;;;;;;4849089;29;20072;-80
2021/09/30 08:01:18;;;;;;;4.72;0.88;;;14.20;67.20;;;;;;4830195;29;20030;-80
2021/09/30 08:03:44;;;;;;;4.25;0.80;;;14.10;67.00;;;;;;4847973;29;20038;-79
2021/09/30 08:06:10;;;;;;;4.60;0.93;;;14.20;67.20;;;;;;4852129;29;20095;-81
2021/09/30 08:08:36;;;;;;;4.75;1.38;;;14.30;67.30;;;;;;4850684;29;20038;-81
2021/09/30 08:11:03;;;;;;;3.17;1.00;;;14.40;67.40;;;;;;4841406;29;20105;-81
2021/09/30 08:13:31;;;;;;;5.35;1.20;;;14.40;67.30;;;;;;4840872;29;20129;-87
2021/09/30 08:15:58;;;;;;;3.60;0.85;;;14.50;67.60;;;;;;4849847;29;20375;-85
2021/09/30 08:18:31;;;;;;;2.53;0.80;;;14.50;67.50;;;;;;4849364;29;20029;-81
2021/09/30 08:20:57;;;;;;;3.60;1.40;;;14.50;67.40;;;;;;4842516;29;20174;-80
2021/09/30 08:23:24;;;;;;;11.35;2.70;;;14.60;67.60;;;;;;4847001;29;20030;-80
2021/09/30 08:25:51;;;;;;;7.80;0.90;;;14.60;67.50;;;;;;4841727;29;20029;-79
2021/09/30 08:28:20;;;;;;;7.88;0.85;;;14.60;67.50;;;;;;4845441;29;20037;-79
2021/09/30 08:30:47;;;;;;;4.72;0.98;;;14.70;67.70;;;;;;4847344;29;20393;-78
2021/09/30 08:33:14;;;;;;;3.17;1.00;;;14.70;67.60;;;;;;4853851;29;20049;-79
2021/09/30 08:35:40;;;;;;;7.80;1.17;;;14.70;67.60;;;;;;4844168;29;20117;-79
2021/09/30 08:38:06;;;;;;;4.60;1.10;;;14.70;67.60;;;;;;4845217;29;20049;-81
2021/09/30 08:40:33;;;;;;;4.68;1.42;;;14.80;67.90;;;;;;4841935;29;20194;-83
2021/09/30 08:43:00;;;;;;;4.82;0.88;;;14.80;67.90;;;;;;4858150;29;20120;-81
2021/09/30 08:45:26;;;;;;;4.68;1.25;;;14.80;67.90;;;;;;4859439;29;20048;-81
2021/09/30 08:48:05;;;;;;;4.82;1.20;;;14.80;67.90;;;;;;4859302;29;20144;-80
2021/09/30 08:50:38;;;;;;;3.97;0.80;;;14.90;68.10;;;;;;4852932;29;20037;-81
2021/09/30 08:53:07;;;;;;;2.92;0.82;;;14.90;68.10;;;;;;4855413;29;20049;-82
2021/09/30 08:55:33;;;;;;;3.88;1.15;;;15.10;68.40;;;;;;4831181;29;20398;-85
2021/09/30 08:58:02;;;;;;;3.90;1.00;;;15.20;68.50;;;;;;4848803;29;20034;-81
2021/09/30 09:00:31;;;;;;;5.38;1.80;;;15.30;68.50;;;;;;4851869;29;20497;-81
2021/09/30 09:02:58;;;;;;;4.97;1.10;;;15.50;68.60;;;;;;4833403;29;20493;-83
2021/09/30 09:05:25;;;;;;;5.40;1.30;;;15.60;68.60;;;;;;4840295;29;20092;-83
2021/09/30 09:07:59;;;;;;;6.00;0.93;;;15.70;68.60;;;;;;4848468;29;20506;-86
2021/09/30 09:10:31;;;;;;;4.38;1.08;;;15.80;68.70;;;;;;4857105;29;20029;-86
2021/09/30 09:13:24;;;;;;;3.75;1.10;;;15.80;68.40;;;;;;4846987;29;20042;-82
2021/09/30 09:16:27;;;;;;;4.47;1.20;;;15.90;68.50;;;;;;4840530;29;20064;-80
2021/09/30 09:18:53;;;;;;;6.13;2.15;;;15.90;68.40;;;;;;4840634;29;20041;-79
2021/09/30 09:21:23;;;;;;;8.63;1.60;;;15.90;68.40;;;;;;4862531;29;20089;-80
2021/09/30 09:23:55;;;;;;;3.60;1.00;;;15.90;68.40;;;;;;4850512;29;20034;-82
2021/09/30 09:26:37;;;;;;;3.65;1.52;;;15.90;68.40;;;;;;4841781;29;20042;-81
2021/09/30 09:29:10;;;;;;;4.05;1.58;;;15.90;68.40;;;;;;4857978;29;20032;-81
2021/09/30 09:31:40;;;;;;;2.85;0.80;;;15.90;68.40;;;;;;4858590;29;20047;-82
2021/09/30 09:34:21;;;;;;;2.83;1.42;;;15.90;68.40;;;;;;4858962;29;20041;-87
2021/09/30 09:36:50;;;;;;;5.18;0.90;;;15.90;68.40;;;;;;4859080;29;20034;-83
2021/09/30 09:39:36;;;;;;;4.25;0.90;;;15.90;68.40;;;;;;4858520;29;20073;-80
2021/09/30 09:42:18;;;;;;;4.38;1.35;;;15.90;68.50;;;;;;4860087;29;20037;-80
2021/09/30 09:44:51;;;;;;;3.95;0.90;;;15.90;68.50;;;;;;4856936;29;20065;-80
2021/09/30 09:47:37;;;;;;;6.13;1.40;;;15.90;68.40;;;;;;4850973;29;20473;-83
2021/09/30 09:50:12;;;;;;;2.30;0.90;;;16.00;68.60;;;;;;4838942;29;20034;-82
2021/09/30 09:52:44;;;;;;;2.90;1.42;;;16.00;68.60;;;;;;4853090;29;20514;-84
2021/09/30 09:55:25;;;;;;;5.93;2.50;;;16.10;68.70;;;;;;4845252;29;20077;-89
2021/09/30 09:58:16;;;;;;;5.43;1.40;;;16.10;68.70;;;;;;4839976;29;20030;-82
2021/09/30 10:01:01;;;;;;;5.30;1.75;;;16.20;68.80;;;;;;4839424;29;20094;-82
2021/09/30 10:03:33;;;;;;;4.28;1.50;;;16.30;68.90;;;;;;4839244;29;20030;-81
2021/09/30 10:06:00;;;;;;;5.72;1.27;;;16.30;68.80;;;;;;4839232;29;20038;-82
2021/09/30 10:08:28;;;;;;;3.35;1.70;;;16.40;68.90;;;;;;4846794;29;20132;-85
2021/09/30 10:10:56;;;;;;;4.50;1.13;;;16.40;68.90;;;;;;4851246;29;20657;-84
2021/09/30 10:13:25;;;;;;;4.50;1.50;;;16.40;68.90;;;;;;4850214;29;20124;-85
2021/09/30 10:15:55;;;;;;;5.03;1.35;;;16.50;69.00;;;;;;4852602;29;20479;-83
2021/09/30 10:18:23;;;;;;;5.07;1.90;;;16.60;69.10;;;;;;4848542;29;20036;-81
2021/09/30 10:20:50;;;;;;;4.63;1.08;;;16.60;69.10;;;;;;4835980;29;20029;-81
2021/09/30 10:23:25;;;;;;;5.63;1.45;;;16.70;69.20;;;;;;4837936;29;20045;-81
2021/09/30 10:25:54;;;;;;;3.35;0.75;;;16.70;69.20;;;;;;4837482;29;20482;-81
2021/09/30 10:28:20;;;;;;;4.28;1.42;;;16.70;69.40;;;;;;4843927;29;20371;-82
2021/09/30 10:30:49;;;;;;;7.88;1.65;;;16.80;69.70;;;;;;4855690;29;20083;-82
2021/09/30 10:33:20;;;;;;;10.23;2.60;;;16.80;69.80;;;;;;4869787;29;20037;-81
2021/09/30 10:35:53;;;;;;;6.43;1.48;;;16.90;70.10;;;;;;4855672;29;20025;-80
2021/09/30 10:38:31;;;;;;;4.88;1.30;;;17.00;70.50;;;;;;4852972;29;20244;-81
2021/09/30 10:41:00;;;;;;;7.53;1.65;;;17.10;70.80;;;;;;4854240;29;20045;-82
2021/09/30 10:43:28;;;;;;;4.55;1.30;;;17.10;70.80;;;;;;4838377;29;20025;-85
2021/09/30 10:45:55;;;;;;;12.43;2.05;;;17.20;70.90;;;;;;4842531;29;20034;-84
2021/09/30 10:48:24;;;;;;;8.57;2.40;;;17.20;71.70;;;;;;4847556;29;20064;-84
2021/09/30 10:50:56;;;;;;;17.08;3.50;;;17.30;71.80;;;;;;4865893;29;20048;-84
2021/09/30 10:53:47;;;;;;;9.93;2.43;;;17.40;72.40;;;;;;4865351;29;20049;-80
2021/09/30 10:56:27;;;;;;;6.88;1.60;;;17.50;73.10;;;;;;4853316;29;20839;-84
2021/09/30 10:59:09;;;;;;;10.57;1.80;;;17.60;73.10;;;;;;4842597;29;20038;-80
2021/09/30 11:01:48;;;;;;;5.75;2.25;;;17.70;73.00;;;;;;4823933;29;20113;-82
2021/09/30 11:04:18;;;;;;;12.48;2.28;;;17.80;73.00;;;;;;4854674;29;20493;-81
2021/09/30 11:07:12;;;;;;;6.43;1.73;;;18.00;73.10;;;;;;4856363;29;20533;-84
2021/09/30 11:09:38;;;;;;;4.97;1.48;;;18.10;73.10;;;;;;4840485;29;20037;-88
2021/09/30 11:12:13;;;;;;;6.07;1.77;;;18.10;72.80;;;;;;4843215;29;20739;-82
2021/09/30 11:14:53;;;;;;;6.47;2.05;;;18.20;73.00;;;;;;4855238;29;20041;-84
2021/09/30 11:17:35;;;;;;;6.13;2.40;;;18.30;73.00;;;;;;4855803;29;20038;-87
2021/09/30 11:20:32;;;;;;;10.38;2.03;;;18.40;73.00;;;;;;4855095;29;20128;-82
2021/09/30 11:22:59;;;;;;;6.50;2.50;;;18.50;72.90;;;;;;4848211;29;20026;-81
2021/09/30 11:26:02;;;;;;;8.02;1.98;;;18.60;72.80;;;;;;4841062;29;20163;-81
2021/09/30 11:28:30;;;;;;;8.18;3.25;;;18.70;72.70;;;;;;4865246;29;20112;-83
2021/09/30 11:31:44;;;;;;;10.07;2.63;;;18.90;72.70;;;;;;4842847;29;20060;-83
2021/09/30 11:34:18;;;;;;;6.18;2.38;;;19.00;72.70;;;;;;4842544;29;20045;-83
2021/09/30 11:36:44;;;;;;;7.57;2.33;;;19.00;72.50;;;;;;4846720;29;20593;-84
2021/09/30 11:39:10;;;;;;;5.93;2.47;;;19.10;72.50;;;;;;4846033;29;20085;-83
2021/09/30 11:41:40;;;;;;;6.80;2.55;;;19.20;72.50;;;;;;4846023;29;20086;-84
2021/09/30 11:44:06;;;;;;;7.60;2.97;;;19.30;72.50;;;;;;4847379;29;20026;-84
2021/09/30 11:46:38;;;;;;;5.30;2.17;;;19.30;72.10;;;;;;4853310;29;20052;-85
2021/09/30 11:49:05;;;;;;;6.00;2.00;;;19.40;72.00;;;;;;4846271;29;20041;-86
2021/09/30 11:51:38;;;;;;;5.78;2.03;;;19.50;71.90;;;;;;4845742;29;20049;-83
2021/09/30 11:54:06;;;;;;;7.18;2.20;;;19.50;71.70;;;;;;4848987;29;20146;-85
2021/09/30 11:56:47;;;;;;;7.00;2.15;;;19.50;71.50;;;;;;4845263;29;20124;-88
2021/09/30 11:59:16;;;;;;;7.68;2.20;;;19.50;71.40;;;;;;4846815;29;20038;-85
2021/09/30 12:01:48;;;;;;;4.40;1.92;;;19.40;71.30;;;;;;4845814;29;20204;-85
2021/09/30 12:04:36;;;;;;;6.07;2.20;;;19.40;71.30;;;;;;4851910;29;20038;-86
2021/09/30 12:07:03;;;;;;;6.22;1.80;;;19.30;71.20;;;;;;4840853;29;20037;-83
2021/09/30 12:09:34;;;;;;;4.45;2.00;;;19.20;71.10;;;;;;4849214;29;20037;-81
2021/09/30 12:12:03;;;;;;;8.02;2.40;;;19.20;71.20;;;;;;4850110;29;20182;-84
2021/09/30 12:14:50;;;;;;;4.20;1.50;;;19.10;71.10;;;;;;4846069;29;20029;-81
2021/09/30 12:17:20;;;;;;;4.63;1.63;;;19.10;71.10;;;;;;4852785;29;20065;-82
2021/09/30 12:19:49;;;;;;;6.50;2.20;;;19.00;71.00;;;;;;4837161;29;20116;-81
2021/09/30 12:22:33;;;;;;;7.38;1.85;;;19.00;71.00;;;;;;4834745;29;20109;-82
2021/09/30 12:25:12;;;;;;;3.33;1.45;;;19.00;71.60;;;;;;4834405;29;20034;-81
2021/09/30 12:27:41;;;;;;;8.73;1.75;;;19.00;71.10;;;;;;4834673;29;20443;-86
2021/09/30 12:30:16;;;;;;;3.70;1.42;;;19.00;71.00;;;;;;4836132;29;20136;-83
2021/09/30 12:32:45;;;;;;;4.93;1.67;;;18.90;70.90;;;;;;4837572;29;20042;-82
2021/09/30 12:35:26;;;;;;;4.30;1.67;;;18.90;71.50;;;;;;4836221;29;20124;-85
2021/09/30 12:37:57;;;;;;;4.57;1.95;;;18.90;71.00;;;;;;4833856;29;20037;-81
2021/09/30 12:40:49;;;;;;;4.40;1.38;;;18.90;71.00;;;;;;4833702;29;20041;-81
2021/09/30 12:43:26;;;;;;;5.68;1.83;;;18.90;70.90;;;;;;4844158;29;20029;-81
2021/09/30 12:46:05;;;;;;;3.55;1.67;;;18.90;70.90;;;;;;4854016;29;20128;-80
2021/09/30 12:48:33;;;;;;;5.43;1.40;;;19.00;71.10;;;;;;4846471;29;20056;-83
2021/09/30 12:51:00;;;;;;;3.05;1.25;;;19.00;71.00;;;;;;4836587;29;20038;-80
2021/09/30 12:53:27;;;;;;;4.40;1.20;;;19.10;71.10;;;;;;4834116;29;20057;-79
2021/09/30 12:56:04;;;;;;;3.65;1.13;;;19.10;71.00;;;;;;4836131;29;20069;-81
2021/09/30 12:58:45;;;;;;;6.95;2.22;;;19.10;70.90;;;;;;4834202;29;20036;-79
2021/09/30 13:01:35;;;;;;;7.28;1.70;;;19.20;71.00;;;;;;4834808;29;20150;-83
2021/09/30 13:04:26;;;;;;;4.78;1.52;;;19.20;71.00;;;;;;4834009;29;20942;-79
2021/09/30 13:06:56;;;;;;;4.40;1.88;;;19.20;70.90;;;;;;4834934;29;20034;-83
2021/09/30 13:09:25;;;;;;;6.88;1.50;;;19.20;70.90;;;;;;4834596;29;20034;-84
2021/09/30 13:11:58;;;;;;;4.53;1.73;;;19.20;70.90;;;;;;4834629;29;20044;-86
2021/09/30 13:14:35;;;;;;;6.20;1.33;;;19.20;71.00;;;;;;4852169;29;20050;-82
2021/09/30 13:17:10;;;;;;;3.20;1.35;;;19.20;70.90;;;;;;4853749;29;20030;-80
2021/09/30 13:19:54;;;;;;;3.67;1.30;;;19.20;70.90;;;;;;4836157;29;20121;-81
2021/09/30 13:22:34;;;;;;;3.85;1.20;;;19.30;71.00;;;;;;4837917;29;20049;-84
2021/09/30 13:25:05;;;;;;;3.45;1.42;;;19.30;71.00;;;;;;4837061;29;20037;-80
2021/09/30 13:27:35;;;;;;;4.15;1.17;;;19.20;70.90;;;;;;4836837;29;20042;-81
2021/09/30 13:30:03;;;;;;;4.80;1.48;;;19.20;70.90;;;;;;4838609;29;20030;-81
2021/09/30 13:32:32;;;;;;;3.30;1.50;;;19.30;71.10;;;;;;4821044;29;20034;-80
2021/09/30 13:34:59;;;;;;;5.47;2.10;;;19.30;71.20;;;;;;4837236;29;20124;-80
2021/09/30 13:37:26;;;;;;;2.42;0.98;;;19.20;71.00;;;;;;4838448;29;20026;-85
2021/09/30 13:39:56;;;;;;;3.45;0.90;;;19.20;71.00;;;;;;4837044;29;20061;-81
2021/09/30 13:42:27;;;;;;;4.68;1.42;;;19.30;71.20;;;;;;4837206;29;20038;-82
2021/09/30 13:44:54;;;;;;;6.15;1.48;;;19.30;71.30;;;;;;4836558;29;20065;-83
2021/09/30 13:47:21;;;;;;;4.15;1.85;;;19.30;71.20;;;;;;4849760;29;20059;-80
2021/09/30 13:49:47;;;;;;;5.35;1.50;;;19.40;71.40;;;;;;4840405;29;20041;-83
2021/09/30 13:52:13;;;;;;;3.50;1.63;;;19.40;71.30;;;;;;4839142;29;20101;-83
2021/09/30 13:54:39;;;;;;;5.53;1.88;;;19.40;71.30;;;;;;4856452;29;20033;-81
2021/09/30 13:57:06;;;;;;;9.02;2.35;;;19.40;71.30;;;;;;4856709;29;20038;-80
2021/09/30 13:59:32;;;;;;;3.03;1.67;;;19.50;71.50;;;;;;4855864;29;20030;-81
2021/09/30 14:01:58;;;;;;;4.57;1.20;;;19.50;71.50;;;;;;4855107;29;20036;-81
2021/09/30 14:04:24;;;;;;;5.72;1.20;;;19.50;71.50;;;;;;4855894;29;20041;-81
2021/09/30 14:06:52;;;;;;;3.85;1.05;;;19.50;71.50;;;;;;4856256;29;20136;-79
2021/09/30 14:09:18;;;;;;;4.00;1.67;;;19.60;71.60;;;;;;4855843;29;20037;-80
2021/09/30 14:11:44;;;;;;;4.70;1.30;;;19.60;71.60;;;;;;4856177;29;20370;-80
2021/09/30 14:14:10;;;;;;;3.15;1.40;;;19.50;71.50;;;;;;4854928;29;20105;-80
2021/09/30 14:16:36;;;;;;;2.60;0.88;;;19.50;71.50;;;;;;4854218;29;20025;-81
2021/09/30 14:19:02;;;;;;;3.97;1.42;;;19.50;71.50;;;;;;4854254;29;20033;-81
2021/09/30 14:21:28;;;;;;;4.13;1.63;;;19.50;71.50;;;;;;4855775;29;20048;-81
2021/09/30 14:23:53;;;;;;;3.22;0.90;;;19.50;71.60;;;;;;4854532;29;20037;-81
2021/09/30 14:26:19;;;;;;;2.58;1.13;;;19.60;71.80;;;;;;4854716;29;20029;-80
2021/09/30 14:28:45;;;;;;;2.85;0.80;;;19.60;71.80;;;;;;4848282;29;20403;-82
2021/09/30 14:31:12;;;;;;;2.38;0.88;;;19.60;71.70;;;;;;4838376;29;20098;-82
2021/09/30 14:33:38;;;;;;;2.78;0.98;;;19.60;71.70;;;;;;4836087;29;20045;-82
2021/09/30 14:36:05;;;;;;;2.25;1.02;;;19.60;71.80;;;;;;4835754;29;20062;-81
2021/09/30 14:38:31;;;;;;;4.07;0.90;;;19.60;71.80;;;;;;4836805;29;20607;-82
2021/09/30 14:40:58;;;;;;;2.63;1.13;;;19.60;71.80;;;;;;4820530;29;20436;-81
2021/09/30 14:43:36;;;;;;;2.88;0.75;;;19.60;71.80;;;;;;4835763;29;20360;-82
2021/09/30 14:46:07;;;;;;;5.10;1.20;;;19.60;71.80;;;;;;4837224;29;20204;-81
2021/09/30 14:48:37;;;;;;;1.92;0.75;;;19.70;72.00;;;;;;4848184;29;20064;-82
2021/09/30 14:51:06;;;;;;;3.03;0.70;;;19.70;72.00;;;;;;4836894;29;20125;-81
2021/09/30 14:53:34;;;;;;;3.25;0.80;;;19.70;71.90;;;;;;4836671;29;20062;-83
2021/09/30 14:56:02;;;;;;;4.75;0.82;;;19.80;72.10;;;;;;4820349;29;20121;-82
2021/09/30 14:58:28;;;;;;;1.95;1.17;;;19.90;72.10;;;;;;4835896;29;20068;-82
2021/09/30 15:00:54;;;;;;;2.33;0.90;;;20.00;72.20;;;;;;4835840;29;20071;-82
2021/09/30 15:03:20;;;;;;;2.47;1.08;;;19.90;72.00;;;;;;4841875;29;20101;-82
2021/09/30 15:05:46;;;;;;;1.70;0.90;;;20.00;72.10;;;;;;4836458;29;20060;-81
2021/09/30 15:08:12;;;;;;;1.67;0.60;;;20.00;72.00;;;;;;4831049;29;20669;-81
2021/09/30 15:10:39;;;;;;;1.00;0.40;;;20.00;72.00;;;;;;4844269;29;20116;-83
2021/09/30 15:13:05;;;;;;;2.28;0.68;;;20.00;72.10;;;;;;4832172;29;20046;-82
2021/09/30 15:15:31;;;;;;;2.88;0.80;;;19.90;71.90;;;;;;4841126;29;20493;-84
2021/09/30 15:18:07;;;;;;;2.03;0.60;;;19.90;72.00;;;;;;4855863;29;20089;-80
2021/09/30 15:23:30;;;;;;;1.00;0.40;;;19.80;71.90;;;;;;4846664;29;20129;-80
2021/09/30 15:25:56;;;;;;;1.92;0.70;;;19.70;71.80;;;;;;4855020;29;20116;-80
2021/09/30 15:28:24;;;;;;;0.98;0.77;;;19.70;71.90;;;;;;4849326;29;20038;-82
2021/09/30 15:30:54;;;;;;;1.30;0.60;;;19.70;72.00;;;;;;4836848;29;20382;-80
2021/09/30 15:33:20;;;;;;;2.05;1.00;;;19.60;71.90;;;;;;4836771;29;20106;-81
2021/09/30 15:35:46;;;;;;;1.80;0.47;;;19.60;72.00;;;;;;4836823;29;20034;-81
2021/09/30 15:38:13;;;;;;;1.60;0.40;;;19.50;72.40;;;;;;4837296;29;20044;-80
2021/09/30 15:40:40;;;;;;;1.88;0.93;;;19.50;71.90;;;;;;4836780;29;20026;-82
2021/09/30 15:43:06;;;;;;;1.02;0.40;;;19.50;72.00;;;;;;4837431;29;20041;-81
2021/09/30 15:45:32;;;;;;;1.30;0.50;;;19.50;72.00;;;;;;4834868;29;20394;-80
2021/09/30 15:47:58;;;;;;;1.13;0.70;;;19.50;72.10;;;;;;4849874;29;20053;-81
2021/09/30 15:50:24;;;;;;;2.50;0.50;;;19.40;72.00;;;;;;4834442;29;20033;-80
2021/09/30 15:52:51;;;;;;;1.50;0.82;;;19.40;72.00;;;;;;4837468;29;20141;-84
2021/09/30 15:55:18;;;;;;;0.60;0.40;;;19.40;72.10;;;;;;4839675;29;20536;-84